Time;durP1;ratioP1;P1;durP2;ratioP2;P2;SDS_P1;SDS_P2;PMS_P1;PMS_P2;Temp;Humidity;BMP_temperature;BMP_pressure;BME280_temperature;BME280_humidity;BME280_pressure;Samples;Min_cycle;Max_cycle;Signal;HPM_P1;HPM_P2
2022/07/21 00:01:20;;;;;;;2.90;2.35;;;18.10;99.90;;;;;;5035957;28;20180;-83
2022/07/21 00:03:46;;;;;;;3.83;2.00;;;18.10;99.90;;;;;;5035476;28;20712;-82
2022/07/21 00:06:12;;;;;;;4.53;2.38;;;18.10;99.90;;;;;;5035871;28;20178;-82
2022/07/21 00:08:37;;;;;;;3.45;2.30;;;18.10;99.90;;;;;;5017956;28;20201;-82
2022/07/21 00:11:03;;;;;;;6.32;2.25;;;18.10;99.90;;;;;;5035465;28;20180;-83
2022/07/21 00:13:28;;;;;;;3.13;2.33;;;18.10;99.90;;;;;;5035659;28;20187;-83
2022/07/21 00:15:54;;;;;;;3.05;2.03;;;18.00;99.90;;;;;;5035932;28;20486;-82
2022/07/21 00:18:21;;;;;;;5.43;2.72;;;18.00;99.90;;;;;;5035745;28;20204;-82
2022/07/21 00:20:47;;;;;;;3.80;1.95;;;18.00;99.90;;;;;;5034372;28;20168;-83
2022/07/21 00:23:13;;;;;;;5.10;2.83;;;18.00;99.90;;;;;;5035431;28;20671;-82
2022/07/21 00:25:38;;;;;;;4.18;2.50;;;17.90;99.90;;;;;;5017378;28;20208;-83
2022/07/21 00:28:04;;;;;;;4.72;2.17;;;17.90;99.90;;;;;;5035448;28;20181;-83
2022/07/21 00:30:30;;;;;;;2.90;2.20;;;17.80;99.90;;;;;;5035579;28;20323;-86
2022/07/21 00:32:56;;;;;;;3.55;2.25;;;17.80;99.90;;;;;;5035447;28;20687;-83
2022/07/21 00:35:22;;;;;;;2.92;2.30;;;17.70;99.90;;;;;;5034195;28;20180;-83
2022/07/21 00:37:47;;;;;;;3.88;2.28;;;17.60;99.90;;;;;;5033981;28;20660;-83
2022/07/21 00:40:15;;;;;;;3.40;2.25;;;17.60;99.90;;;;;;5035267;28;20246;-82
2022/07/21 00:42:41;;;;;;;2.58;2.00;;;17.50;99.90;;;;;;5001286;28;20181;-83
2022/07/21 00:45:08;;;;;;;2.78;1.60;;;17.50;99.90;;;;;;5017493;28;20239;-83
2022/07/21 00:47:34;;;;;;;4.07;2.42;;;17.40;99.90;;;;;;5017204;28;20708;-83
2022/07/21 00:50:04;;;;;;;3.10;1.92;;;17.40;99.90;;;;;;5017317;28;20184;-83
2022/07/21 00:52:30;;;;;;;3.90;2.70;;;17.40;99.90;;;;;;5017404;28;20343;-82
2022/07/21 00:54:56;;;;;;;6.68;2.20;;;17.30;99.90;;;;;;5035175;28;20218;-83
2022/07/21 00:57:21;;;;;;;6.22;2.78;;;17.30;99.90;;;;;;5035316;28;20637;-82
2022/07/21 00:59:47;;;;;;;4.80;2.35;;;17.30;99.90;;;;;;5017308;28;20188;-82
2022/07/21 01:02:14;;;;;;;2.75;1.92;;;17.20;99.90;;;;;;5034948;28;20531;-82
2022/07/21 01:04:40;;;;;;;4.57;2.95;;;17.10;99.90;;;;;;5034782;28;20176;-83
2022/07/21 01:07:06;;;;;;;3.78;1.80;;;17.10;99.90;;;;;;5034557;28;20188;-83
2022/07/21 01:09:33;;;;;;;3.83;2.47;;;17.10;99.90;;;;;;5034403;28;20609;-82
2022/07/21 01:11:59;;;;;;;3.60;2.38;;;17.10;99.90;;;;;;5033096;28;20200;-83
2022/07/21 01:14:26;;;;;;;3.08;2.50;;;17.00;99.90;;;;;;5034448;28;20260;-82
2022/07/21 01:16:52;;;;;;;4.25;3.22;;;17.00;99.90;;;;;;5034458;28;20184;-83
2022/07/21 01:19:17;;;;;;;9.75;2.63;;;17.00;99.90;;;;;;5017262;28;20684;-82
2022/07/21 01:21:46;;;;;;;4.20;2.60;;;16.90;99.90;;;;;;5034258;28;20259;-82
2022/07/21 01:24:12;;;;;;;5.68;2.78;;;16.90;99.90;;;;;;5034419;28;20177;-82
2022/07/21 01:26:47;;;;;;;2.80;1.83;;;16.80;99.90;;;;;;5034233;28;20180;-83
2022/07/21 01:29:14;;;;;;;3.67;1.90;;;16.80;99.90;;;;;;5034467;28;20310;-82
2022/07/21 01:31:42;;;;;;;4.38;2.35;;;16.70;99.90;;;;;;5033740;28;20212;-82
2022/07/21 01:34:09;;;;;;;4.88;2.80;;;16.70;99.90;;;;;;5034333;28;20187;-82
2022/07/21 01:36:36;;;;;;;5.13;2.65;;;16.50;99.90;;;;;;5034164;28;20295;-82
2022/07/21 01:41:47;;;;;;;4.38;2.13;;;16.50;99.90;;;;;;5033943;28;20183;-82
2022/07/21 01:44:13;;;;;;;4.13;1.92;;;16.50;99.90;;;;;;5034149;28;20255;-82
2022/07/21 01:46:46;;;;;;;3.50;2.13;;;16.50;99.90;;;;;;5033491;28;20578;-84
2022/07/21 01:49:13;;;;;;;3.78;2.45;;;16.40;99.90;;;;;;5033675;28;20156;-82
2022/07/21 01:51:39;;;;;;;4.05;2.97;;;16.40;99.90;;;;;;5032663;28;20647;-82
2022/07/21 01:54:07;;;;;;;4.18;2.47;;;16.40;99.90;;;;;;5016472;28;20275;-83
2022/07/21 01:56:34;;;;;;;4.65;2.55;;;16.30;99.90;;;;;;5016128;28;20186;-82
2022/07/21 01:58:59;;;;;;;3.70;2.50;;;16.30;99.90;;;;;;5033277;28;20180;-82
2022/07/21 02:01:26;;;;;;;5.55;2.80;;;16.30;99.90;;;;;;5033886;28;20188;-82
2022/07/21 02:03:54;;;;;;;4.00;2.40;;;16.30;99.90;;;;;;5033513;28;20184;-82
2022/07/21 02:06:19;;;;;;;5.03;2.30;;;16.20;99.90;;;;;;5033643;28;20223;-82
2022/07/21 02:08:45;;;;;;;4.03;2.42;;;16.20;99.90;;;;;;5032171;28;20568;-83
2022/07/21 02:11:13;;;;;;;4.38;2.53;;;16.20;99.90;;;;;;5032290;28;20188;-82
2022/07/21 02:13:39;;;;;;;6.15;3.33;;;16.20;99.90;;;;;;5033344;28;20586;-82
2022/07/21 02:16:05;;;;;;;4.00;2.42;;;16.10;99.90;;;;;;5033593;28;20701;-82
2022/07/21 02:18:31;;;;;;;4.22;2.55;;;16.10;99.90;;;;;;5033613;28;20181;-82
2022/07/21 02:20:57;;;;;;;3.95;2.88;;;16.10;99.90;;;;;;5015563;28;20183;-82
2022/07/21 02:23:23;;;;;;;4.68;2.70;;;16.10;99.90;;;;;;5033440;28;20691;-82
2022/07/21 02:25:50;;;;;;;5.13;2.92;;;16.00;99.90;;;;;;5015272;28;20191;-82
2022/07/21 02:28:15;;;;;;;13.30;3.15;;;16.00;99.90;;;;;;5033283;28;20199;-82
2022/07/21 02:30:42;;;;;;;3.50;2.25;;;16.00;99.90;;;;;;5015705;28;20224;-81
2022/07/21 02:33:07;;;;;;;4.38;2.60;;;16.00;99.90;;;;;;5033060;28;20756;-82
2022/07/21 02:35:33;;;;;;;7.93;2.33;;;16.00;99.90;;;;;;5015706;28;20251;-82
2022/07/21 02:38:00;;;;;;;2.83;2.17;;;15.90;99.90;;;;;;5031258;28;20238;-82
2022/07/21 02:40:26;;;;;;;4.60;2.40;;;15.90;99.90;;;;;;5033107;28;20180;-82
2022/07/21 02:42:52;;;;;;;4.75;2.50;;;15.90;99.90;;;;;;5033028;28;20176;-82
2022/07/21 02:45:17;;;;;;;3.13;2.50;;;15.90;99.90;;;;;;5031862;28;20188;-82
2022/07/21 02:47:50;;;;;;;6.13;2.65;;;15.80;99.90;;;;;;5032954;28;20207;-82
2022/07/21 02:50:16;;;;;;;4.72;2.30;;;15.80;99.90;;;;;;5032999;28;20186;-82
2022/07/21 02:52:42;;;;;;;3.85;2.60;;;15.80;99.90;;;;;;4999275;28;20689;-82
2022/07/21 02:55:08;;;;;;;3.75;2.28;;;15.80;99.90;;;;;;5032938;28;20187;-81
2022/07/21 02:57:34;;;;;;;4.78;2.20;;;15.70;99.90;;;;;;5033204;28;20172;-82
2022/07/21 03:00:00;;;;;;;5.78;2.30;;;15.70;99.90;;;;;;4999933;28;20648;-81
2022/07/21 03:02:25;;;;;;;4.30;2.92;;;15.70;99.90;;;;;;5036313;28;20224;-82
2022/07/21 03:04:51;;;;;;;4.57;3.00;;;15.70;99.90;;;;;;5037209;28;20578;-82
2022/07/21 03:07:16;;;;;;;4.60;2.78;;;15.70;99.90;;;;;;5037175;28;20204;-81
2022/07/21 03:09:42;;;;;;;4.63;2.70;;;15.70;99.90;;;;;;5019644;28;20238;-81
2022/07/21 03:12:08;;;;;;;3.85;2.78;;;15.70;99.90;;;;;;5036796;28;20208;-81
2022/07/21 03:14:33;;;;;;;4.93;2.63;;;15.70;99.90;;;;;;5035817;28;20230;-81
2022/07/21 03:17:00;;;;;;;3.92;2.97;;;15.60;99.90;;;;;;5035592;28;20625;-82
2022/07/21 03:19:26;;;;;;;5.05;2.35;;;15.70;99.90;;;;;;5037217;28;20222;-82
2022/07/21 03:21:51;;;;;;;2.60;1.95;;;15.60;99.90;;;;;;5036952;28;20578;-82
2022/07/21 03:24:17;;;;;;;5.40;3.28;;;15.70;99.90;;;;;;5037164;28;20187;-82
2022/07/21 03:26:43;;;;;;;6.50;3.25;;;15.70;99.90;;;;;;5019982;28;20208;-83
2022/07/21 03:29:09;;;;;;;3.55;2.20;;;15.70;99.90;;;;;;5035264;28;20228;-82
2022/07/21 03:31:35;;;;;;;5.43;2.75;;;15.70;99.90;;;;;;5019102;28;20221;-82
2022/07/21 03:34:00;;;;;;;7.43;3.15;;;15.80;99.90;;;;;;5036745;28;20180;-82
2022/07/21 03:36:26;;;;;;;3.95;2.78;;;15.80;99.90;;;;;;5037229;28;20191;-81
2022/07/21 03:38:51;;;;;;;5.35;2.40;;;15.80;99.90;;;;;;5037274;28;20537;-83
2022/07/21 03:41:17;;;;;;;4.80;2.80;;;15.80;99.90;;;;;;5036404;28;20231;-81
2022/07/21 03:43:43;;;;;;;5.60;2.97;;;15.90;99.90;;;;;;5035107;28;20183;-82
2022/07/21 03:46:08;;;;;;;5.80;2.90;;;15.80;99.90;;;;;;5018496;28;20180;-82
2022/07/21 03:48:34;;;;;;;13.80;7.18;;;16.00;99.90;;;;;;5036123;28;20211;-81
2022/07/21 03:51:00;;;;;;;4.25;3.30;;;16.00;99.90;;;;;;5018334;28;20191;-82
2022/07/21 03:53:25;;;;;;;5.45;2.90;;;16.10;99.90;;;;;;5036202;28;20178;-82
2022/07/21 03:55:51;;;;;;;7.25;3.42;;;16.20;99.90;;;;;;5036423;28;20189;-82
2022/07/21 03:58:17;;;;;;;4.78;2.92;;;16.20;99.90;;;;;;5043767;28;20184;-81
2022/07/21 04:00:44;;;;;;;5.82;2.60;;;16.30;99.90;;;;;;5012957;28;20188;-82
2022/07/21 04:03:11;;;;;;;7.03;3.13;;;16.30;99.90;;;;;;5046177;28;20195;-82
2022/07/21 04:05:38;;;;;;;6.32;3.22;;;16.40;99.90;;;;;;5028882;28;20180;-82
2022/07/21 04:08:05;;;;;;;8.82;3.75;;;16.50;99.90;;;;;;5041008;28;20180;-82
2022/07/21 04:10:34;;;;;;;3.90;2.60;;;16.60;99.90;;;;;;5036023;28;20675;-82
2022/07/21 04:13:03;;;;;;;6.45;3.28;;;16.70;99.90;;;;;;5035660;28;20235;-82
2022/07/21 04:15:29;;;;;;;6.78;2.95;;;16.80;99.90;;;;;;5035775;28;20216;-82
2022/07/21 04:17:54;;;;;;;3.55;2.42;;;16.90;99.90;;;;;;5001967;28;20204;-82
2022/07/21 04:20:21;;;;;;;4.70;2.67;;;17.00;99.90;;;;;;5035636;28;20229;-82
2022/07/21 04:22:48;;;;;;;7.45;3.50;;;17.10;99.90;;;;;;5035676;28;20634;-82
2022/07/21 04:25:15;;;;;;;5.40;3.10;;;17.20;99.90;;;;;;5017965;28;20177;-82
2022/07/21 04:27:42;;;;;;;5.70;2.88;;;17.30;99.90;;;;;;5035583;28;20191;-82
2022/07/21 04:30:11;;;;;;;5.88;2.90;;;17.40;99.90;;;;;;5037753;28;20259;-82
2022/07/21 04:32:36;;;;;;;5.63;2.55;;;17.50;99.90;;;;;;5035762;28;20295;-81
2022/07/21 04:35:07;;;;;;;12.85;3.13;;;17.60;99.90;;;;;;5017716;28;20268;-82
2022/07/21 04:37:32;;;;;;;4.95;2.85;;;17.70;99.90;;;;;;5035401;28;20168;-82
2022/07/21 04:39:59;;;;;;;4.20;2.88;;;17.80;99.90;;;;;;5035445;28;20173;-87
2022/07/21 04:42:24;;;;;;;5.38;3.15;;;17.90;99.90;;;;;;5034109;28;20494;-82
2022/07/21 04:44:50;;;;;;;5.07;3.58;;;18.00;99.90;;;;;;5035665;28;20200;-81
2022/07/21 04:47:16;;;;;;;5.75;3.90;;;18.10;99.90;;;;;;5034999;28;20173;-82
2022/07/21 04:49:42;;;;;;;5.60;3.53;;;18.20;99.90;;;;;;5001216;28;20196;-81
2022/07/21 04:52:07;;;;;;;7.18;3.28;;;18.30;99.90;;;;;;5017077;28;20286;-82
2022/07/21 04:54:33;;;;;;;3.25;2.10;;;18.40;99.90;;;;;;5035634;28;20269;-81
2022/07/21 04:57:02;;;;;;;5.57;3.13;;;18.50;99.90;;;;;;5034902;28;20173;-82
2022/07/21 04:59:29;;;;;;;4.72;2.42;;;18.60;99.90;;;;;;5035338;28;20176;-81
2022/07/21 05:01:54;;;;;;;3.67;2.13;;;18.70;99.90;;;;;;5035015;28;20656;-82
2022/07/21 05:04:20;;;;;;;3.58;2.20;;;18.80;99.90;;;;;;5017109;28;20259;-83
2022/07/21 05:06:45;;;;;;;2.33;1.65;;;18.90;99.90;;;;;;5000668;28;20187;-81
2022/07/21 05:09:11;;;;;;;7.90;2.05;;;19.00;99.90;;;;;;5033825;28;20180;-82
2022/07/21 05:11:37;;;;;;;3.35;1.58;;;19.10;99.90;;;;;;5033384;28;20213;-82
2022/07/21 05:14:02;;;;;;;4.28;1.75;;;19.20;99.90;;;;;;5030478;28;20619;-86
2022/07/21 05:16:29;;;;;;;1.85;1.08;;;19.30;99.90;;;;;;5042946;28;20718;-82
2022/07/21 05:18:54;;;;;;;1.55;1.42;;;19.40;99.90;;;;;;5016889;28;20184;-81
2022/07/21 05:21:20;;;;;;;2.83;1.30;;;19.60;99.90;;;;;;5033804;28;20176;-82
2022/07/21 05:23:45;;;;;;;2.22;1.27;;;19.60;99.90;;;;;;5033091;28;20184;-82
2022/07/21 05:26:12;;;;;;;1.73;1.13;;;19.70;99.90;;;;;;5006012;28;20188;-82
2022/07/21 05:28:38;;;;;;;1.27;1.17;;;19.80;99.90;;;;;;5015816;28;20192;-83
2022/07/21 05:31:03;;;;;;;1.65;1.00;;;19.90;99.90;;;;;;5033093;28;20173;-82
2022/07/21 05:33:29;;;;;;;1.90;1.30;;;20.00;99.90;;;;;;5032343;28;20210;-81
2022/07/21 05:35:55;;;;;;;0.65;0.65;;;19.60;99.90;;;;;;4999108;28;20180;-81
2022/07/21 05:38:20;;;;;;;1.70;1.08;;;20.20;99.90;;;;;;5032691;28;20176;-81
2022/07/21 05:40:46;;;;;;;0.70;0.70;;;20.30;99.90;;;;;;5015595;28;20274;-82
2022/07/21 05:43:11;;;;;;;2.45;1.30;;;20.40;99.90;;;;;;5032117;28;20184;-83
2022/07/21 05:45:37;;;;;;;1.73;1.38;;;20.40;99.90;;;;;;5032051;28;20280;-83
2022/07/21 05:48:02;;;;;;;1.80;1.20;;;20.50;99.90;;;;;;5004293;28;20196;-82
2022/07/21 05:50:28;;;;;;;1.45;1.10;;;20.60;99.90;;;;;;5031868;28;20191;-82
2022/07/21 05:52:54;;;;;;;1.00;0.63;;;20.70;99.90;;;;;;4998398;28;20212;-82
2022/07/21 05:55:19;;;;;;;1.48;0.90;;;20.80;99.90;;;;;;5032460;28;20180;-81
2022/07/21 05:57:45;;;;;;;1.83;0.80;;;20.80;99.90;;;;;;5015100;28;20600;-82
2022/07/21 06:00:11;;;;;;;2.30;0.60;;;20.70;99.90;;;;;;5014744;28;20207;-82
2022/07/21 06:02:36;;;;;;;0.63;0.60;;;20.70;99.90;;;;;;4988737;28;20185;-83
2022/07/21 06:05:02;;;;;;;2.40;0.60;;;20.70;99.90;;;;;;5031963;28;20701;-81
2022/07/21 06:07:28;;;;;;;1.02;0.85;;;20.90;99.90;;;;;;5014543;28;20687;-81
2022/07/21 06:09:54;;;;;;;0.77;0.52;;;21.00;99.90;;;;;;5032705;28;20610;-82
2022/07/21 06:12:19;;;;;;;1.52;1.00;;;21.20;99.90;;;;;;5032169;28;20205;-82
2022/07/21 06:14:45;;;;;;;1.60;0.90;;;21.30;99.90;;;;;;5014941;28;20188;-81
2022/07/21 06:17:10;;;;;;;1.05;0.95;;;21.40;99.90;;;;;;5029796;28;20180;-81
2022/07/21 06:19:36;;;;;;;1.02;0.73;;;21.50;99.90;;;;;;5029925;28;20192;-80
2022/07/21 06:22:02;;;;;;;1.38;0.95;;;21.60;99.90;;;;;;5013963;28;20210;-81
2022/07/21 06:24:28;;;;;;;7.53;1.33;;;21.60;99.90;;;;;;5032337;28;20695;-81
2022/07/21 06:26:57;;;;;;;1.70;1.00;;;21.50;99.90;;;;;;5032554;28;20181;-81
2022/07/21 06:29:23;;;;;;;0.75;0.60;;;21.60;99.90;;;;;;5032573;28;20220;-81
2022/07/21 06:31:49;;;;;;;3.13;0.93;;;21.80;99.90;;;;;;5032988;28;20208;-80
2022/07/21 06:34:14;;;;;;;5.15;0.93;;;21.90;99.90;;;;;;5015511;28;20537;-82
2022/07/21 06:36:40;;;;;;;0.95;0.70;;;21.90;99.90;;;;;;5015160;28;20188;-81
2022/07/21 06:39:06;;;;;;;0.47;0.47;;;22.00;99.90;;;;;;5033108;28;20251;-81
2022/07/21 06:41:31;;;;;;;3.78;0.60;;;22.10;99.90;;;;;;5032657;28;20283;-81
2022/07/21 06:44:06;;;;;;;1.85;1.35;;;22.20;99.90;;;;;;5033072;28;20180;-82
2022/07/21 06:46:35;;;;;;;0.70;0.70;;;22.30;99.90;;;;;;5015434;28;20180;-82
2022/07/21 06:49:02;;;;;;;1.30;1.08;;;22.30;99.90;;;;;;5033208;28;20183;-81
2022/07/21 06:51:27;;;;;;;1.40;0.90;;;22.40;99.90;;;;;;5032462;28;20740;-82
2022/07/21 06:53:53;;;;;;;4.00;2.00;;;22.50;99.90;;;;;;5015668;28;20259;-81
2022/07/21 06:56:19;;;;;;;1.65;0.93;;;22.60;99.90;;;;;;5032841;28;20180;-82
2022/07/21 06:58:46;;;;;;;2.53;1.48;;;22.70;99.90;;;;;;5032796;28;20181;-81
2022/07/21 07:01:13;;;;;;;0.77;0.77;;;22.70;99.90;;;;;;5032914;28;20169;-81
2022/07/21 07:03:39;;;;;;;2.72;1.20;;;22.60;99.90;;;;;;5015525;28;20618;-81
2022/07/21 07:06:05;;;;;;;2.03;1.38;;;22.60;99.90;;;;;;5032817;28;20228;-82
2022/07/21 07:08:31;;;;;;;1.20;1.02;;;22.70;99.90;;;;;;5032589;28;20234;-83
2022/07/21 07:10:57;;;;;;;1.23;0.77;;;22.80;99.90;;;;;;5033079;28;20188;-83
2022/07/21 07:13:23;;;;;;;1.48;0.93;;;22.80;99.90;;;;;;5031419;28;20211;-82
2022/07/21 07:15:49;;;;;;;1.15;0.70;;;22.70;99.90;;;;;;4998713;28;20180;-83
2022/07/21 07:18:15;;;;;;;3.63;1.10;;;22.80;99.90;;;;;;5032580;28;20521;-83
2022/07/21 07:20:41;;;;;;;3.05;1.52;;;22.90;99.90;;;;;;5031771;28;20181;-83
2022/07/21 07:23:06;;;;;;;1.95;1.10;;;23.00;99.90;;;;;;5032808;28;20184;-84
2022/07/21 07:25:32;;;;;;;2.30;0.75;;;23.10;99.90;;;;;;5031397;28;20275;-83
2022/07/21 07:27:58;;;;;;;1.00;0.70;;;23.20;99.90;;;;;;5032749;28;20259;-84
2022/07/21 07:30:23;;;;;;;0.98;0.88;;;23.30;99.50;;;;;;5032635;28;20231;-82
2022/07/21 07:32:49;;;;;;;2.35;1.10;;;23.40;99.30;;;;;;5015058;28;20572;-82
2022/07/21 07:35:16;;;;;;;1.48;1.30;;;23.40;98.60;;;;;;5031004;28;20239;-83
2022/07/21 07:37:44;;;;;;;3.17;1.27;;;23.40;98.70;;;;;;5031379;28;20176;-82
2022/07/21 07:40:16;;;;;;;4.20;0.70;;;23.40;98.40;;;;;;5032733;28;20634;-82
2022/07/21 07:42:42;;;;;;;2.83;0.95;;;23.60;98.60;;;;;;5032519;28;20169;-82
2022/07/21 07:45:09;;;;;;;3.25;0.60;;;23.60;97.40;;;;;;5032766;28;20207;-82
2022/07/21 07:47:34;;;;;;;0.60;0.60;;;23.80;98.30;;;;;;5035665;28;20176;-83
2022/07/21 07:50:01;;;;;;;0.85;0.80;;;23.90;98.70;;;;;;5036234;28;20172;-80
2022/07/21 07:52:28;;;;;;;4.10;1.45;;;23.90;97.00;;;;;;5036020;28;20208;-81
2022/07/21 07:54:54;;;;;;;5.43;1.05;;;23.90;97.20;;;;;;5036117;28;20183;-81
2022/07/21 07:57:19;;;;;;;2.25;1.50;;;23.90;97.10;;;;;;5018711;28;20267;-80
2022/07/21 07:59:45;;;;;;;2.33;1.40;;;23.90;97.90;;;;;;5018522;28;20185;-80
2022/07/21 08:02:10;;;;;;;2.50;1.60;;;24.00;98.20;;;;;;5035639;28;20176;-81
2022/07/21 08:04:37;;;;;;;3.67;1.10;;;24.10;96.60;;;;;;5035085;28;20223;-81
2022/07/21 08:07:03;;;;;;;3.30;1.20;;;24.10;96.60;;;;;;5035726;28;20264;-80
2022/07/21 08:09:29;;;;;;;1.13;0.73;;;24.10;96.50;;;;;;5035290;28;20239;-82
2022/07/21 08:11:55;;;;;;;1.35;0.90;;;24.20;95.70;;;;;;5018006;28;20200;-82
2022/07/21 08:14:20;;;;;;;1.15;1.05;;;24.20;95.00;;;;;;5035606;28;20177;-82
2022/07/21 08:16:46;;;;;;;0.85;0.60;;;24.20;95.70;;;;;;5033971;28;20188;-82
2022/07/21 08:19:12;;;;;;;1.45;0.70;;;24.20;96.10;;;;;;5018365;28;20239;-82
2022/07/21 08:21:37;;;;;;;2.25;1.63;;;24.20;97.10;;;;;;5017345;28;20204;-82
2022/07/21 08:24:03;;;;;;;2.13;1.63;;;24.30;96.20;;;;;;5035221;28;20542;-82
2022/07/21 08:26:29;;;;;;;2.30;1.20;;;24.40;95.90;;;;;;5035211;28;20199;-82
2022/07/21 08:28:56;;;;;;;1.00;0.70;;;24.60;95.40;;;;;;5035573;28;20232;-82
2022/07/21 08:31:23;;;;;;;1.58;1.27;;;24.70;92.70;;;;;;5017741;28;20176;-82
2022/07/21 08:33:49;;;;;;;1.75;1.17;;;24.70;93.00;;;;;;5033873;28;20247;-82
2022/07/21 08:36:15;;;;;;;1.90;1.27;;;24.70;93.00;;;;;;5017614;28;20584;-82
2022/07/21 08:38:41;;;;;;;2.25;0.70;;;24.70;91.20;;;;;;5017740;28;20271;-82
2022/07/21 08:41:08;;;;;;;1.25;0.85;;;24.60;90.30;;;;;;5035279;28;20173;-82
2022/07/21 08:43:34;;;;;;;3.72;0.75;;;24.70;91.90;;;;;;5035499;28;20181;-83
2022/07/21 08:46:00;;;;;;;1.27;0.80;;;24.70;92.50;;;;;;5035096;28;20183;-83
2022/07/21 08:48:27;;;;;;;0.70;0.70;;;24.80;92.60;;;;;;5035246;28;20177;-86
2022/07/21 08:50:53;;;;;;;1.15;0.95;;;24.80;90.20;;;;;;5033729;28;20176;-83
2022/07/21 08:53:19;;;;;;;0.60;0.60;;;24.80;88.70;;;;;;5034957;28;20209;-83
2022/07/21 08:55:45;;;;;;;2.70;0.90;;;24.80;90.30;;;;;;5034125;28;20181;-83
2022/07/21 08:58:12;;;;;;;5.25;2.70;;;24.80;91.00;;;;;;5000176;28;20184;-83
2022/07/21 09:00:40;;;;;;;1.10;1.00;;;24.90;92.30;;;;;;5032729;28;20307;-82
2022/07/21 09:03:21;;;;;;;1.30;1.08;;;25.00;91.20;;;;;;5035027;28;20629;-81
2022/07/21 09:06:16;;;;;;;1.35;0.75;;;25.20;91.30;;;;;;5014099;28;20192;-83
2022/07/21 09:08:45;;;;;;;1.77;1.27;;;25.30;91.00;;;;;;4986160;28;20200;-84
2022/07/21 09:11:24;;;;;;;2.05;1.40;;;25.30;90.60;;;;;;5025518;28;20536;-84
2022/07/21 09:14:11;;;;;;;0.90;0.70;;;25.40;90.40;;;;;;5033691;28;20191;-85
2022/07/21 09:16:43;;;;;;;2.65;0.80;;;25.30;88.80;;;;;;5034241;28;20168;-84
2022/07/21 09:19:23;;;;;;;2.63;0.73;;;25.20;89.90;;;;;;5016730;28;20184;-84
2022/07/21 09:21:51;;;;;;;1.00;0.77;;;25.40;91.20;;;;;;5032968;28;20263;-84
2022/07/21 09:24:29;;;;;;;0.93;0.70;;;25.60;89.10;;;;;;5034443;28;20185;-84
2022/07/21 09:27:07;;;;;;;5.60;2.65;;;25.80;90.60;;;;;;5032834;28;20176;-85
2022/07/21 09:29:35;;;;;;;0.93;0.73;;;25.90;89.80;;;;;;5042517;28;20234;-86
2022/07/21 09:32:21;;;;;;;1.08;0.85;;;25.90;85.10;;;;;;5054055;28;20268;-86
2022/07/21 09:34:49;;;;;;;3.17;1.30;;;25.90;90.00;;;;;;5053891;28;20190;-84
2022/07/21 09:37:16;;;;;;;0.68;0.60;;;26.00;88.40;;;;;;5052954;28;20194;-86
2022/07/21 09:39:51;;;;;;;0.90;0.70;;;26.00;85.20;;;;;;5052886;28;20278;-86
2022/07/21 09:42:37;;;;;;;3.15;1.63;;;26.10;86.10;;;;;;5053665;28;20636;-85
2022/07/21 09:45:07;;;;;;;0.80;0.80;;;26.30;84.70;;;;;;5054003;28;20506;-83
2022/07/21 09:47:34;;;;;;;0.77;0.73;;;26.40;86.10;;;;;;5053997;28;20168;-88
2022/07/21 09:50:01;;;;;;;0.73;0.60;;;26.30;85.30;;;;;;5053749;28;20199;-84
2022/07/21 09:52:31;;;;;;;1.83;1.00;;;26.60;85.90;;;;;;5036071;28;20761;-84
2022/07/21 09:55:00;;;;;;;1.17;0.77;;;26.80;85.70;;;;;;5053932;28;20168;-84
2022/07/21 09:57:26;;;;;;;1.25;0.93;;;26.80;82.20;;;;;;5036058;28;20175;-83
2022/07/21 09:59:52;;;;;;;1.27;0.85;;;26.70;80.50;;;;;;5035684;28;20641;-84
2022/07/21 10:02:21;;;;;;;0.90;0.80;;;26.60;79.90;;;;;;5053722;28;20180;-84
2022/07/21 10:04:54;;;;;;;1.35;0.63;;;26.70;82.90;;;;;;5053469;28;20218;-84
2022/07/21 10:07:21;;;;;;;1.65;1.08;;;26.90;82.20;;;;;;5053940;28;20168;-83
2022/07/21 10:09:48;;;;;;;1.27;0.88;;;27.20;80.00;;;;;;5053070;28;20179;-84
2022/07/21 10:12:17;;;;;;;0.90;0.75;;;27.20;81.60;;;;;;5053520;28;20208;-84
2022/07/21 10:14:43;;;;;;;1.83;0.75;;;27.30;80.10;;;;;;5053437;28;20199;-85
2022/07/21 10:17:09;;;;;;;1.48;0.95;;;27.30;80.00;;;;;;5035970;28;20183;-85
2022/07/21 10:19:51;;;;;;;1.50;1.25;;;27.40;76.60;;;;;;5053371;28;20226;-84
2022/07/21 10:22:33;;;;;;;1.95;1.20;;;27.40;80.00;;;;;;5052964;28;20175;-86
2022/07/21 10:24:59;;;;;;;2.83;1.27;;;27.40;77.40;;;;;;5051940;28;20168;-85
2022/07/21 10:27:25;;;;;;;1.27;1.05;;;27.40;77.80;;;;;;5052694;28;20191;-85
2022/07/21 10:29:53;;;;;;;2.08;1.10;;;27.40;78.30;;;;;;5034983;28;20231;-85
2022/07/21 10:32:21;;;;;;;0.82;0.68;;;27.60;75.90;;;;;;5052963;28;20192;-85
2022/07/21 10:34:48;;;;;;;0.82;0.63;;;27.60;76.00;;;;;;5052222;28;20185;-85
2022/07/21 10:37:39;;;;;;;1.02;0.82;;;27.60;74.30;;;;;;5052552;28;20225;-86
2022/07/21 10:40:06;;;;;;;1.20;0.80;;;27.60;75.00;;;;;;5052772;28;20179;-84
2022/07/21 10:42:32;;;;;;;1.48;1.00;;;27.50;74.90;;;;;;5052954;28;20648;-84
2022/07/21 10:44:58;;;;;;;0.70;0.70;;;27.70;75.70;;;;;;5034584;28;20179;-85
2022/07/21 10:47:30;;;;;;;1.73;0.90;;;28.00;74.70;;;;;;5052686;28;20620;-84
2022/07/21 10:49:57;;;;;;;1.27;0.90;;;28.30;77.20;;;;;;5034588;28;20186;-85
2022/07/21 10:52:35;;;;;;;1.65;1.23;;;28.50;73.00;;;;;;5051751;28;20695;-84
2022/07/21 10:55:10;;;;;;;1.10;0.85;;;28.70;74.50;;;;;;5026266;28;20267;-85
2022/07/21 10:57:36;;;;;;;3.88;1.10;;;28.80;72.80;;;;;;5052858;28;20178;-85
2022/07/21 11:00:29;;;;;;;0.93;0.70;;;29.00;72.80;;;;;;5051058;28;20407;-84
2022/07/21 11:02:57;;;;;;;2.42;1.00;;;29.10;70.20;;;;;;5043571;28;20186;-84
2022/07/21 11:05:25;;;;;;;0.60;0.57;;;29.30;71.00;;;;;;5051637;28;20172;-85
2022/07/21 11:08:14;;;;;;;1.00;0.85;;;29.40;70.20;;;;;;5034497;28;20183;-85
2022/07/21 11:10:46;;;;;;;1.15;0.95;;;29.40;70.00;;;;;;5051993;28;20229;-86
2022/07/21 11:13:13;;;;;;;1.25;0.90;;;29.50;68.20;;;;;;5050157;28;20227;-86
2022/07/21 11:15:51;;;;;;;1.48;1.00;;;29.60;65.80;;;;;;5053398;28;20175;-86
2022/07/21 11:18:21;;;;;;;1.00;0.70;;;29.40;66.90;;;;;;5052829;28;20179;-85
2022/07/21 11:21:11;;;;;;;1.17;0.98;;;29.50;66.60;;;;;;5054445;28;20217;-85
2022/07/21 11:23:47;;;;;;;1.08;0.70;;;29.10;64.20;;;;;;5051458;28;20184;-85
2022/07/21 11:26:15;;;;;;;0.70;0.70;;;29.00;66.00;;;;;;5053379;28;20191;-85
2022/07/21 11:28:42;;;;;;;1.05;0.73;;;28.90;65.90;;;;;;5059155;28;20176;-85
2022/07/21 11:31:10;;;;;;;0.85;0.70;;;28.90;67.20;;;;;;5075993;28;20155;-85
2022/07/21 11:33:38;;;;;;;0.93;0.60;;;28.70;66.30;;;;;;5075202;28;20214;-85
2022/07/21 11:36:05;;;;;;;0.80;0.80;;;28.70;65.40;;;;;;5055066;28;20180;-86
2022/07/21 11:38:31;;;;;;;1.60;1.00;;;28.60;66.20;;;;;;5062444;28;20172;-85
2022/07/21 11:41:19;;;;;;;1.88;0.80;;;28.50;65.60;;;;;;5054802;28;20191;-85
2022/07/21 11:43:46;;;;;;;0.80;0.80;;;28.50;67.70;;;;;;5035066;28;20180;-84
2022/07/21 11:46:13;;;;;;;1.27;0.80;;;28.60;67.50;;;;;;5037303;28;20192;-85
2022/07/21 11:48:39;;;;;;;0.73;0.70;;;28.70;67.30;;;;;;5034398;28;20278;-85
2022/07/21 11:51:06;;;;;;;0.63;0.60;;;28.80;70.00;;;;;;5052266;28;20186;-85
2022/07/21 11:53:32;;;;;;;0.90;0.88;;;28.80;66.40;;;;;;5021106;28;20203;-85
2022/07/21 11:55:58;;;;;;;0.80;0.80;;;28.80;66.70;;;;;;5055146;28;20195;-86
2022/07/21 11:58:24;;;;;;;1.73;0.80;;;28.70;64.20;;;;;;5037519;28;20168;-85
2022/07/21 12:01:04;;;;;;;4.45;1.40;;;28.80;66.20;;;;;;5054785;28;20257;-84
2022/07/21 12:03:30;;;;;;;1.17;1.02;;;28.90;67.50;;;;;;5050426;28;20187;-83
2022/07/21 12:05:56;;;;;;;2.60;0.82;;;28.90;65.80;;;;;;5055558;28;20182;-85
2022/07/21 12:08:23;;;;;;;0.85;0.77;;;28.90;64.70;;;;;;5037845;28;20547;-84
2022/07/21 12:10:49;;;;;;;1.35;0.90;;;28.80;64.80;;;;;;5055322;28;20179;-83
2022/07/21 12:13:15;;;;;;;2.83;0.90;;;28.80;65.40;;;;;;5020612;28;20767;-82
2022/07/21 12:15:41;;;;;;;0.82;0.77;;;29.00;67.00;;;;;;5019417;28;20267;-83
2022/07/21 12:18:24;;;;;;;1.83;0.90;;;28.90;65.30;;;;;;5053604;28;20560;-83
2022/07/21 12:21:01;;;;;;;0.82;0.82;;;28.80;64.40;;;;;;5054679;28;20235;-85
2022/07/21 12:23:30;;;;;;;0.90;0.90;;;29.00;65.20;;;;;;5037417;28;20202;-86
2022/07/21 12:25:58;;;;;;;1.05;0.80;;;29.20;64.20;;;;;;5054826;28;20201;-86
2022/07/21 12:28:55;;;;;;;0.70;0.70;;;29.20;63.50;;;;;;5037071;28;20665;-86
2022/07/21 12:31:21;;;;;;;1.30;0.73;;;29.30;62.90;;;;;;5055434;28;20234;-85
2022/07/21 12:33:48;;;;;;;0.80;0.73;;;29.20;62.50;;;;;;5037432;28;20700;-86
2022/07/21 12:36:14;;;;;;;0.80;0.80;;;29.20;64.10;;;;;;5055215;28;20180;-85
2022/07/21 12:38:42;;;;;;;3.45;1.10;;;29.30;64.10;;;;;;5037039;28;20237;-85
2022/07/21 12:41:10;;;;;;;0.80;0.80;;;29.30;63.00;;;;;;5055206;28;20211;-84
2022/07/21 12:43:35;;;;;;;1.73;0.80;;;29.30;63.90;;;;;;5055241;28;20180;-85
2022/07/21 12:46:18;;;;;;;0.98;0.70;;;29.40;65.60;;;;;;5021236;28;20589;-84
2022/07/21 12:48:44;;;;;;;1.77;1.10;;;29.60;66.40;;;;;;5038256;28;20258;-84
2022/07/21 12:51:14;;;;;;;1.08;0.98;;;29.60;63.60;;;;;;5055350;28;20270;-84